Time;durP1;ratioP1;P1;durP2;ratioP2;P2;SDS_P1;SDS_P2;PMS_P1;PMS_P2;Temp;Humidity;BMP_temperature;BMP_pressure;BME280_temperature;BME280_humidity;BME280_pressure;Samples;Min_cycle;Max_cycle;Signal;HPM_P1;HPM_P2
2022/08/24 00:01:10;;;;;;;38.20;33.17;;;19.30;99.90;;;;;;4936271;28;94149;-32
2022/08/24 00:03:37;;;;;;;48.65;38.05;;;19.30;99.90;;;;;;4936797;28;94772;-30
2022/08/24 00:06:06;;;;;;;43.00;36.83;;;19.30;99.90;;;;;;4936435;28;94970;-31
2022/08/24 00:08:32;;;;;;;42.15;36.78;;;19.30;99.90;;;;;;4937340;28;92788;-30
2022/08/24 00:10:58;;;;;;;45.75;40.33;;;19.30;99.90;;;;;;4938035;28;92861;-34
2022/08/24 00:13:25;;;;;;;44.10;39.35;;;19.30;99.90;;;;;;4936565;28;95086;-32
2022/08/24 00:15:50;;;;;;;43.92;39.22;;;19.30;99.90;;;;;;4937311;28;95060;-31
2022/08/24 00:18:17;;;;;;;45.25;39.90;;;19.30;99.90;;;;;;4937724;28;92770;-30
2022/08/24 00:20:43;;;;;;;43.30;38.75;;;19.30;99.90;;;;;;4937211;28;92477;-32
2022/08/24 00:23:09;;;;;;;42.33;37.80;;;19.30;99.90;;;;;;4936361;28;95803;-34
2022/08/24 00:25:35;;;;;;;44.28;39.42;;;19.30;99.90;;;;;;4936577;28;95392;-32
2022/08/24 00:28:02;;;;;;;45.28;37.90;;;19.20;99.90;;;;;;4969953;22;93552;-30
2022/08/24 00:30:28;;;;;;;39.85;35.80;;;19.20;99.90;;;;;;4937246;28;92203;-32
2022/08/24 00:32:54;;;;;;;44.13;39.20;;;19.20;99.90;;;;;;4936686;28;94921;-31
2022/08/24 00:35:21;;;;;;;40.55;36.42;;;19.20;99.90;;;;;;4936904;28;94597;-33
2022/08/24 00:37:48;;;;;;;39.85;35.85;;;19.20;99.90;;;;;;4937406;28;94256;-31
2022/08/24 00:40:22;;;;;;;42.13;37.72;;;19.20;99.90;;;;;;4936950;28;93305;-31
2022/08/24 00:42:49;;;;;;;41.60;36.30;;;19.20;99.90;;;;;;4936527;28;94709;-32
2022/08/24 00:45:16;;;;;;;42.10;37.80;;;19.10;99.90;;;;;;4935865;28;94493;-32
2022/08/24 00:47:54;;;;;;;42.90;38.47;;;19.10;99.90;;;;;;4936536;28;93509;-32
2022/08/24 00:50:43;;;;;;;;;;;19.00;99.90;;;;;;4923826;28;93834;-31
2022/08/24 00:53:14;;;;;;;43.10;38.03;;;19.00;99.90;;;;;;4926239;28;96212;-32
2022/08/24 00:55:46;;;;;;;45.75;41.10;;;18.90;99.90;;;;;;4937230;28;96089;-31
2022/08/24 00:58:17;;;;;;;48.60;43.38;;;18.90;99.90;;;;;;4921546;28;93413;-33
2022/08/24 01:00:46;;;;;;;43.80;38.97;;;18.90;99.90;;;;;;4920822;28;94546;-34
2022/08/24 01:03:12;;;;;;;43.72;39.22;;;18.90;99.90;;;;;;4925666;28;94657;-35
2022/08/24 01:05:38;;;;;;;48.30;42.92;;;18.90;99.90;;;;;;4929084;28;96585;-32
2022/08/24 01:08:08;;;;;;;45.30;40.28;;;18.90;99.90;;;;;;4930276;28;93648;-30
2022/08/24 01:10:39;;;;;;;42.08;37.67;;;18.90;99.90;;;;;;4936826;28;92144;-34
2022/08/24 01:13:09;;;;;;;47.95;42.92;;;18.80;99.90;;;;;;4936050;28;96038;-31
2022/08/24 01:15:38;;;;;;;50.45;43.63;;;18.80;99.90;;;;;;4921997;28;95600;-32
2022/08/24 01:21:10;;;;;;;48.42;42.78;;;18.70;99.90;;;;;;4936543;28;94415;-34
2022/08/24 01:23:39;;;;;;;47.63;42.42;;;18.60;99.90;;;;;;4936435;28;94525;-33
2022/08/24 01:26:08;;;;;;;50.03;44.05;;;18.50;99.90;;;;;;4936032;28;94210;-31
2022/08/24 01:28:35;;;;;;;50.00;44.53;;;18.30;99.90;;;;;;4935738;28;93303;-33
2022/08/24 01:31:01;;;;;;;45.65;40.80;;;18.20;99.90;;;;;;4931050;28;92293;-31
2022/08/24 01:33:30;;;;;;;55.95;45.90;;;18.20;99.90;;;;;;4928787;28;95339;-30
2022/08/24 01:36:06;;;;;;;52.10;45.75;;;18.20;99.90;;;;;;4939654;28;94399;-31
2022/08/24 01:38:32;;;;;;;49.90;44.38;;;18.10;99.90;;;;;;4939310;28;93479;-31
2022/08/24 01:41:01;;;;;;;47.55;42.22;;;18.10;99.90;;;;;;4939311;28;93481;-30
2022/08/24 01:43:27;;;;;;;52.83;46.83;;;18.10;99.90;;;;;;4939146;28;94805;-32
2022/08/24 01:45:53;;;;;;;50.42;45.22;;;18.10;99.90;;;;;;4939821;28;94445;-33
2022/08/24 01:48:19;;;;;;;49.83;43.42;;;18.10;99.90;;;;;;4939407;28;94015;-34
2022/08/24 01:50:45;;;;;;;46.63;41.08;;;18.20;99.90;;;;;;4938889;28;92880;-32
2022/08/24 01:53:11;;;;;;;49.90;44.33;;;18.20;99.90;;;;;;4939519;28;94338;-30
2022/08/24 01:55:36;;;;;;;47.28;42.45;;;18.20;99.90;;;;;;4938932;28;95049;-30
2022/08/24 01:58:03;;;;;;;47.15;40.60;;;18.20;99.90;;;;;;4939917;28;93179;-34
2022/08/24 02:00:29;;;;;;;42.80;38.30;;;18.10;99.90;;;;;;4939731;28;93904;-33
2022/08/24 02:02:55;;;;;;;36.85;32.13;;;18.10;99.90;;;;;;4937801;28;96314;-33
2022/08/24 02:05:23;;;;;;;39.30;35.25;;;18.10;99.90;;;;;;4932008;28;95367;-32
2022/08/24 02:07:49;;;;;;;44.43;39.97;;;18.10;99.90;;;;;;4933517;28;94766;-30
2022/08/24 02:10:16;;;;;;;45.25;40.55;;;18.10;99.90;;;;;;4938247;28;92195;-32
2022/08/24 02:12:45;;;;;;;47.20;42.25;;;18.00;99.90;;;;;;4939004;28;94899;-31
2022/08/24 02:15:12;;;;;;;49.45;44.25;;;18.00;99.90;;;;;;4938844;28;94313;-31
2022/08/24 02:17:39;;;;;;;43.55;38.90;;;18.00;99.90;;;;;;4939815;28;94642;-33
2022/08/24 02:20:06;;;;;;;44.78;40.08;;;17.90;99.90;;;;;;4938859;28;92837;-30
2022/08/24 02:22:32;;;;;;;52.13;45.20;;;17.80;99.90;;;;;;4929957;28;95040;-31
2022/08/24 02:24:57;;;;;;;40.95;36.85;;;17.80;99.90;;;;;;4933948;28;96540;-31
2022/08/24 02:27:23;;;;;;;41.50;37.28;;;17.70;99.90;;;;;;4938644;28;95217;-31
2022/08/24 02:29:49;;;;;;;40.58;36.15;;;17.70;99.90;;;;;;4939160;28;92659;-32
2022/08/24 02:32:14;;;;;;;44.72;35.13;;;17.70;99.90;;;;;;4938274;28;94673;-30
2022/08/24 02:34:40;;;;;;;34.80;31.02;;;17.70;99.90;;;;;;4938659;28;94518;-30
2022/08/24 02:37:06;;;;;;;37.33;33.28;;;17.70;99.90;;;;;;4938248;28;94118;-31
2022/08/24 02:39:32;;;;;;;42.97;37.97;;;17.60;99.90;;;;;;4939434;28;94098;-31
2022/08/24 02:41:57;;;;;;;43.65;39.22;;;17.70;99.90;;;;;;4938933;28;94623;-30
2022/08/24 02:44:23;;;;;;;47.28;38.78;;;17.60;99.90;;;;;;4938377;28;94523;-31
2022/08/24 02:46:49;;;;;;;43.00;38.38;;;17.60;99.90;;;;;;4938941;28;93951;-30
2022/08/24 02:49:14;;;;;;;42.70;36.95;;;17.60;99.90;;;;;;4937933;28;94308;-30
2022/08/24 02:51:43;;;;;;;50.05;40.95;;;17.60;99.90;;;;;;4938020;28;95682;-34
2022/08/24 02:54:09;;;;;;;47.58;41.72;;;17.60;99.90;;;;;;4938877;28;95797;-33
2022/08/24 02:56:35;;;;;;;45.25;40.28;;;17.60;99.90;;;;;;4938787;28;93435;-33
2022/08/24 02:59:01;;;;;;;41.13;36.83;;;17.60;99.90;;;;;;4937850;28;94483;-31
2022/08/24 03:01:27;;;;;;;42.47;38.05;;;17.60;99.90;;;;;;4938676;28;94749;-31
2022/08/24 03:03:54;;;;;;;48.03;41.63;;;17.60;99.90;;;;;;4937960;28;94647;-31
2022/08/24 03:06:19;;;;;;;48.53;39.83;;;17.60;99.90;;;;;;4924991;28;93258;-29
2022/08/24 03:08:45;;;;;;;43.80;39.10;;;17.60;99.90;;;;;;4938794;28;92144;-29
2022/08/24 03:11:12;;;;;;;46.17;41.03;;;17.60;99.90;;;;;;4937909;28;95045;-34
2022/08/24 03:13:38;;;;;;;49.75;41.50;;;17.60;99.90;;;;;;4938208;28;94661;-33
2022/08/24 03:16:04;;;;;;;47.20;41.42;;;17.50;99.90;;;;;;4937958;28;93953;-31
2022/08/24 03:18:31;;;;;;;45.00;39.85;;;17.50;99.90;;;;;;4937742;28;93145;-34
2022/08/24 03:20:59;;;;;;;46.05;41.03;;;17.50;99.90;;;;;;4938911;28;94727;-34
2022/08/24 03:23:25;;;;;;;43.85;39.15;;;17.50;99.90;;;;;;4937836;28;94394;-31
2022/08/24 03:25:51;;;;;;;45.83;40.80;;;17.40;99.90;;;;;;4938224;28;92098;-31
2022/08/24 03:28:22;;;;;;;45.45;39.50;;;17.40;99.90;;;;;;4938052;28;92890;-33
2022/08/24 03:30:48;;;;;;;44.35;39.55;;;17.40;99.90;;;;;;4938335;28;94784;-31
2022/08/24 03:33:15;;;;;;;42.10;37.72;;;17.40;99.90;;;;;;4938353;28;94543;-32
2022/08/24 03:35:40;;;;;;;44.17;39.58;;;17.30;99.90;;;;;;4937954;28;94158;-31
2022/08/24 03:38:06;;;;;;;43.30;37.80;;;17.30;99.90;;;;;;4938333;28;93279;-31
2022/08/24 03:40:33;;;;;;;46.90;40.97;;;17.30;99.90;;;;;;4937265;28;95620;-31
2022/08/24 03:43:00;;;;;;;44.75;40.05;;;17.30;99.90;;;;;;4937314;28;95363;-34
2022/08/24 03:45:26;;;;;;;46.33;41.38;;;17.30;99.90;;;;;;4937878;28;93683;-32
2022/08/24 03:47:52;;;;;;;47.63;42.63;;;17.30;99.90;;;;;;4937950;28;93079;-31
2022/08/24 03:50:19;;;;;;;48.30;41.65;;;17.20;99.90;;;;;;4937337;28;96160;-31
2022/08/24 03:52:45;;;;;;;47.95;42.80;;;17.30;99.90;;;;;;4938024;28;94586;-30
2022/08/24 03:55:10;;;;;;;50.40;42.70;;;17.20;99.90;;;;;;4938297;28;92603;-33
2022/08/24 03:57:36;;;;;;;50.33;42.13;;;17.30;99.90;;;;;;4937548;28;93704;-31
2022/08/24 04:00:06;;;;;;;54.83;46.33;;;17.20;99.90;;;;;;4938131;28;94718;-31
2022/08/24 04:02:32;;;;;;;43.28;38.67;;;17.20;99.90;;;;;;4937651;28;93977;-31
2022/08/24 04:04:58;;;;;;;45.03;38.88;;;17.10;99.90;;;;;;4932832;28;94222;-29
2022/08/24 04:07:24;;;;;;;45.15;38.78;;;17.10;99.90;;;;;;4927982;28;93148;-31
2022/08/24 04:09:49;;;;;;;37.42;32.75;;;17.00;99.90;;;;;;4937136;28;94775;-34
2022/08/24 04:12:15;;;;;;;41.15;36.78;;;17.00;99.90;;;;;;4937576;28;94474;-32
2022/08/24 04:14:41;;;;;;;38.88;34.72;;;17.00;99.90;;;;;;4938456;28;92173;-29
2022/08/24 04:17:07;;;;;;;47.38;40.22;;;16.90;99.90;;;;;;4936732;28;94390;-34
2022/08/24 04:19:33;;;;;;;49.15;42.55;;;16.90;99.90;;;;;;4937139;28;94808;-33
2022/08/24 04:21:59;;;;;;;42.83;37.75;;;16.90;99.90;;;;;;4938100;28;95446;-32
2022/08/24 04:24:27;;;;;;;40.92;36.80;;;16.90;99.90;;;;;;4935447;28;94221;-35
2022/08/24 04:26:53;;;;;;;41.72;37.38;;;16.80;99.90;;;;;;4922939;28;94496;-31
2022/08/24 04:29:19;;;;;;;42.30;37.83;;;16.80;99.90;;;;;;4935709;28;95624;-32
2022/08/24 04:31:46;;;;;;;46.10;40.67;;;16.80;99.90;;;;;;4936049;28;96291;-31
2022/08/24 04:34:14;;;;;;;48.55;41.95;;;16.80;99.90;;;;;;4937923;28;94326;-34
2022/08/24 04:36:41;;;;;;;46.65;41.20;;;16.80;99.90;;;;;;4937815;28;93174;-34
2022/08/24 04:39:07;;;;;;;42.80;37.58;;;16.80;99.90;;;;;;4936673;28;96473;-31
2022/08/24 04:41:33;;;;;;;44.35;39.65;;;16.80;99.90;;;;;;4937061;28;94579;-32
2022/08/24 04:43:59;;;;;;;49.22;40.17;;;16.80;99.90;;;;;;4937548;28;94547;-32
2022/08/24 04:46:26;;;;;;;44.63;39.35;;;16.80;99.90;;;;;;4936744;28;92342;-31
2022/08/24 04:48:51;;;;;;;44.90;39.78;;;16.80;99.90;;;;;;4937493;28;94263;-34
2022/08/24 04:51:18;;;;;;;49.65;42.45;;;16.80;99.90;;;;;;4936861;28;94515;-32
2022/08/24 04:53:44;;;;;;;47.10;42.08;;;16.80;99.90;;;;;;4936761;28;93595;-31
2022/08/24 04:56:16;;;;;;;50.08;42.53;;;16.80;99.90;;;;;;4936952;28;93450;-34
2022/08/24 04:58:43;;;;;;;45.38;40.15;;;16.80;99.90;;;;;;4936685;28;93313;-35
2022/08/24 05:01:14;;;;;;;42.97;38.30;;;16.90;99.90;;;;;;4937252;28;94661;-30
2022/08/24 05:03:40;;;;;;;52.58;40.85;;;17.00;99.90;;;;;;4937751;28;92540;-31
2022/08/24 05:06:06;;;;;;;53.70;42.65;;;17.00;99.90;;;;;;4921628;28;92468;-33
2022/08/24 05:08:32;;;;;;;48.83;41.17;;;17.00;99.90;;;;;;4936913;28;94979;-34
2022/08/24 05:10:58;;;;;;;45.58;40.22;;;17.10;99.90;;;;;;4930397;28;94894;-33
2022/08/24 05:13:24;;;;;;;46.45;41.70;;;17.10;99.90;;;;;;4937268;28;92972;-30
2022/08/24 05:15:49;;;;;;;48.88;42.17;;;17.20;99.90;;;;;;4932132;28;93479;-34
2022/08/24 05:18:16;;;;;;;49.17;41.58;;;17.30;99.90;;;;;;4934888;28;96269;-31
2022/08/24 05:20:45;;;;;;;47.17;41.72;;;17.30;99.90;;;;;;4928276;28;95832;-30
2022/08/24 05:23:12;;;;;;;61.38;45.13;;;17.40;99.90;;;;;;4923657;28;93473;-32
2022/08/24 05:25:39;;;;;;;56.95;48.88;;;17.50;99.90;;;;;;4932990;28;93885;-32
2022/08/24 05:28:05;;;;;;;55.13;46.10;;;17.60;99.90;;;;;;4931383;28;95072;-33
2022/08/24 05:30:32;;;;;;;58.55;47.78;;;17.60;99.90;;;;;;4925230;28;95004;-33
2022/08/24 05:32:58;;;;;;;63.65;48.80;;;17.70;99.90;;;;;;4939945;28;92184;-34
2022/08/24 05:35:24;;;;;;;60.15;49.60;;;17.80;99.90;;;;;;4929040;28;91528;-33
2022/08/24 05:37:50;;;;;;;54.67;44.30;;;17.90;99.90;;;;;;4922620;28;94755;-31
2022/08/24 05:40:18;;;;;;;56.70;45.17;;;17.90;99.90;;;;;;4925363;28;94190;-31
2022/08/24 05:42:44;;;;;;;51.95;44.60;;;18.00;99.90;;;;;;4939669;28;94085;-32
2022/08/24 05:45:11;;;;;;;53.15;45.00;;;18.00;99.90;;;;;;4939525;28;93388;-31
2022/08/24 05:47:37;;;;;;;45.85;40.92;;;18.10;99.90;;;;;;4939297;28;94738;-34
2022/08/24 05:50:04;;;;;;;48.45;42.53;;;18.10;99.90;;;;;;4940231;28;95673;-32
2022/08/24 05:52:30;;;;;;;50.30;43.97;;;18.20;99.90;;;;;;4939060;28;92296;-33
2022/08/24 05:54:58;;;;;;;55.60;43.05;;;18.20;99.90;;;;;;4939657;28;94407;-31
2022/08/24 05:57:25;;;;;;;51.45;40.40;;;18.30;99.90;;;;;;4939356;28;95087;-30
2022/08/24 05:59:51;;;;;;;39.03;34.90;;;18.40;99.90;;;;;;4940097;28;94885;-32
2022/08/24 06:02:18;;;;;;;36.85;32.85;;;18.40;99.90;;;;;;4936631;28;94875;-34
2022/08/24 06:04:44;;;;;;;42.20;35.22;;;18.50;99.90;;;;;;4936857;28;93881;-30
2022/08/24 06:07:11;;;;;;;33.45;29.85;;;18.50;99.90;;;;;;4926111;28;95380;-33
2022/08/24 06:09:38;;;;;;;46.88;40.05;;;18.60;99.90;;;;;;4937506;28;95816;-33
2022/08/24 06:12:04;;;;;;;41.70;35.83;;;18.60;99.90;;;;;;4938471;28;93573;-32
2022/08/24 06:14:31;;;;;;;45.55;40.65;;;18.70;99.90;;;;;;4932728;28;93781;-30
2022/08/24 06:16:57;;;;;;;41.83;37.38;;;18.80;99.90;;;;;;4937283;28;94364;-32
2022/08/24 06:19:23;;;;;;;42.60;38.03;;;18.90;99.90;;;;;;4937651;28;94605;-33
2022/08/24 06:21:51;;;;;;;44.85;39.95;;;19.00;99.90;;;;;;4937521;28;93984;-32
2022/08/24 06:24:18;;;;;;;54.03;42.30;;;19.00;99.90;;;;;;4937890;28;91771;-30
2022/08/24 06:29:29;;;;;;;60.08;52.08;;;19.30;99.90;;;;;;4938778;28;94806;-31
2022/08/24 06:31:55;;;;;;;57.92;46.90;;;19.40;99.90;;;;;;4949157;28;93171;-32
2022/08/24 06:34:23;;;;;;;68.68;57.20;;;19.50;99.90;;;;;;4948613;28;93205;-34
2022/08/24 06:36:48;;;;;;;73.25;61.40;;;19.60;99.90;;;;;;4948172;28;95554;-31
2022/08/24 06:39:14;;;;;;;64.35;56.08;;;19.70;99.90;;;;;;4948647;28;94332;-30
2022/08/24 06:41:40;;;;;;;68.57;56.30;;;19.70;99.90;;;;;;4950138;28;93331;-32
2022/08/24 06:44:06;;;;;;;70.97;59.38;;;19.80;99.90;;;;;;4948245;28;93169;-30
2022/08/24 06:46:35;;;;;;;64.72;55.00;;;19.90;99.90;;;;;;4948649;28;94801;-32
2022/08/24 06:49:00;;;;;;;;;;;20.00;99.90;;;;;;4947244;28;94626;-31
2022/08/24 06:51:26;;;;;;;64.90;55.92;;;20.10;99.90;;;;;;4941494;28;92158;-31
2022/08/24 06:53:57;;;;;;;66.60;55.70;;;20.20;99.90;;;;;;4942048;28;93096;-31
2022/08/24 06:56:23;;;;;;;62.30;54.30;;;20.30;99.90;;;;;;4944870;28;95698;-32
2022/08/24 06:58:49;;;;;;;60.13;53.45;;;20.40;99.90;;;;;;4948852;28;95842;-28
2022/08/24 07:01:20;;;;;;;66.22;55.20;;;20.50;99.90;;;;;;4945605;28;93202;-30
2022/08/24 07:03:46;;;;;;;67.63;56.00;;;20.70;99.90;;;;;;4948645;28;92737;-30
2022/08/24 07:06:13;;;;;;;65.18;53.40;;;20.80;99.90;;;;;;4934177;28;94268;-31
2022/08/24 07:08:41;;;;;;;63.83;52.25;;;21.00;99.90;;;;;;4949100;28;94914;-32
2022/08/24 07:11:07;;;;;;;57.45;48.30;;;21.10;99.90;;;;;;4941748;28;93979;-29
2022/08/24 07:13:33;;;;;;;53.40;47.58;;;21.30;99.90;;;;;;4945752;28;92671;-31
2022/08/24 07:15:59;;;;;;;55.00;48.92;;;21.60;99.90;;;;;;4948081;28;94654;-30
2022/08/24 07:18:25;;;;;;;55.20;46.08;;;21.70;99.90;;;;;;4942721;28;94602;-30
2022/08/24 07:20:50;;;;;;;47.65;42.60;;;22.00;99.90;;;;;;4936695;28;94227;-31
2022/08/24 07:23:17;;;;;;;48.47;43.42;;;22.20;99.90;;;;;;4935570;28;94550;-30
2022/08/24 07:25:44;;;;;;;47.72;42.45;;;22.50;99.90;;;;;;4934914;28;95829;-31
2022/08/24 07:28:10;;;;;;;39.85;35.45;;;22.70;99.90;;;;;;4934465;28;93815;-32
2022/08/24 07:30:37;;;;;;;40.50;36.28;;;23.00;99.90;;;;;;4935712;28;94629;-30
2022/08/24 07:33:03;;;;;;;37.70;32.22;;;23.20;99.90;;;;;;4934595;28;94210;-33
2022/08/24 07:35:31;;;;;;;28.65;25.83;;;23.40;99.90;;;;;;4934211;28;94949;-33
2022/08/24 07:37:57;;;;;;;26.83;24.10;;;23.50;99.90;;;;;;4936349;28;94735;-30
2022/08/24 07:40:25;;;;;;;25.73;23.23;;;23.70;99.90;;;;;;4935120;28;93221;-30
2022/08/24 07:42:52;;;;;;;;;;;23.90;99.90;;;;;;4936204;28;93446;-32
2022/08/24 07:45:18;;;;;;;25.83;23.02;;;24.00;99.90;;;;;;4936547;28;96793;-32
2022/08/24 07:47:44;;;;;;;21.98;19.75;;;24.30;99.90;;;;;;4931810;28;95629;-32
2022/08/24 07:50:14;;;;;;;22.52;20.33;;;24.50;99.90;;;;;;4928195;28;94319;-31
2022/08/24 07:52:40;;;;;;;29.48;26.15;;;24.70;99.90;;;;;;4935239;28;93935;-31
2022/08/24 07:55:06;;;;;;;23.38;20.27;;;24.90;99.90;;;;;;4935459;28;94804;-31
2022/08/24 07:57:32;;;;;;;27.50;24.85;;;25.10;99.90;;;;;;4935030;28;95404;-30
2022/08/24 07:59:59;;;;;;;31.90;28.63;;;25.20;99.90;;;;;;4934222;28;94971;-30
2022/08/24 08:02:26;;;;;;;30.17;26.98;;;25.40;99.90;;;;;;4935607;28;92123;-34
2022/08/24 08:04:54;;;;;;;34.15;30.58;;;25.40;99.90;;;;;;4931999;28;95140;-30
2022/08/24 08:07:20;;;;;;;37.03;31.10;;;25.40;99.90;;;;;;4925323;28;94764;-33
2022/08/24 08:09:48;;;;;;;32.47;29.10;;;25.50;99.90;;;;;;4934093;28;95726;-32
2022/08/24 08:12:14;;;;;;;36.00;30.60;;;25.60;99.90;;;;;;4934994;28;94957;-32
2022/08/24 08:14:39;;;;;;;32.38;29.08;;;25.80;99.90;;;;;;4934808;28;94747;-32
2022/08/24 08:17:06;;;;;;;30.50;27.65;;;25.90;99.90;;;;;;4935263;28;94897;-32
2022/08/24 08:19:32;;;;;;;29.23;26.13;;;26.00;99.90;;;;;;4935677;28;93316;-31
2022/08/24 08:24:42;;;;;;;25.48;22.83;;;26.00;99.90;;;;;;4934766;28;94798;-32
2022/08/24 08:27:09;;;;;;;27.77;25.35;;;26.10;99.90;;;;;;4934603;28;95801;-31
2022/08/24 08:29:39;;;;;;;30.00;27.03;;;26.10;99.90;;;;;;4934331;28;94586;-33
2022/08/24 08:32:05;;;;;;;24.60;22.13;;;26.20;99.90;;;;;;4935180;28;93174;-29
2022/08/24 08:34:31;;;;;;;27.38;24.67;;;26.20;99.90;;;;;;4933385;28;96284;-34
2022/08/24 08:36:57;;;;;;;27.00;24.33;;;26.20;99.90;;;;;;4935808;28;93593;-31
2022/08/24 08:39:24;;;;;;;25.05;22.48;;;26.30;99.90;;;;;;4935161;28;92714;-31
2022/08/24 08:42:22;;;;;;;25.30;22.83;;;26.40;99.90;;;;;;4935186;28;94270;-30
2022/08/24 08:44:56;;;;;;;19.02;16.98;;;26.50;99.90;;;;;;4926194;28;94879;-33
2022/08/24 08:47:32;;;;;;;24.65;22.25;;;26.60;99.90;;;;;;4934446;28;94977;-31
2022/08/24 08:50:25;;;;;;;21.70;18.98;;;26.80;99.90;;;;;;4934685;28;93236;-30
2022/08/24 08:53:20;;;;;;;20.30;17.85;;;26.90;99.90;;;;;;4922902;28;93468;-31
2022/08/24 08:56:19;;;;;;;17.65;16.08;;;26.90;99.90;;;;;;4934066;28;94709;-34
2022/08/24 08:59:17;;;;;;;19.90;17.83;;;26.90;99.90;;;;;;4934304;28;95740;-31
2022/08/24 09:01:59;;;;;;;20.90;18.92;;;27.00;99.90;;;;;;4930333;28;94419;-32
2022/08/24 09:04:44;;;;;;;18.48;16.80;;;27.20;99.90;;;;;;4934734;28;93700;-33
2022/08/24 09:07:42;;;;;;;19.40;17.50;;;27.30;99.90;;;;;;4923517;28;94366;-34
2022/08/24 09:10:32;;;;;;;17.30;15.63;;;27.20;99.90;;;;;;4936668;28;95547;-32
2022/08/24 09:13:10;;;;;;;16.65;15.05;;;27.20;99.90;;;;;;4928538;28;94278;-34
2022/08/24 09:15:56;;;;;;;15.48;14.05;;;27.20;99.90;;;;;;4917462;28;93183;-33
2022/08/24 09:18:42;;;;;;;18.48;16.88;;;27.20;99.90;;;;;;4917446;28;94800;-34
2022/08/24 09:21:34;;;;;;;17.98;16.38;;;27.30;99.90;;;;;;4934076;28;94832;-33
2022/08/24 09:24:42;;;;;;;13.00;11.82;;;27.30;99.90;;;;;;4934494;28;92412;-32
2022/08/24 09:27:47;;;;;;;15.43;14.13;;;27.30;99.90;;;;;;4936542;28;92414;-32
2022/08/24 09:30:25;;;;;;;15.20;12.82;;;27.40;99.90;;;;;;4929174;28;96135;-33
2022/08/24 09:33:02;;;;;;;18.13;16.50;;;27.50;99.90;;;;;;4934041;28;95088;-34
2022/08/24 09:35:52;;;;;;;14.18;12.88;;;27.60;99.90;;;;;;4933560;28;93419;-33
2022/08/24 09:38:42;;;;;;;14.48;13.02;;;27.60;99.90;;;;;;4927532;28;93960;-32
2022/08/24 09:41:52;;;;;;;16.05;14.38;;;27.80;99.90;;;;;;4933530;28;96861;-31
2022/08/24 09:44:34;;;;;;;15.80;13.80;;;27.90;99.90;;;;;;4891938;28;94718;-32
2022/08/24 09:47:24;;;;;;;15.55;13.25;;;28.10;99.90;;;;;;4892712;28;94518;-33
2022/08/24 09:49:59;;;;;;;13.57;12.18;;;28.20;99.90;;;;;;4924111;28;92227;-34
2022/08/24 09:52:27;;;;;;;13.10;11.88;;;28.30;99.90;;;;;;4933719;28;94771;-32
2022/08/24 09:55:14;;;;;;;12.82;11.63;;;28.30;99.90;;;;;;4934858;28;94501;-32
2022/08/24 09:57:51;;;;;;;12.40;10.55;;;28.60;99.90;;;;;;4942823;28;93974;-31
2022/08/24 10:00:26;;;;;;;12.23;9.82;;;28.60;99.90;;;;;;4936657;28;92148;-32
2022/08/24 10:03:15;;;;;;;11.57;10.48;;;28.80;99.90;;;;;;4938217;28;95178;-34
2022/08/24 10:06:16;;;;;;;10.75;9.75;;;28.90;99.90;;;;;;4926333;28;94442;-34
2022/08/24 10:08:54;;;;;;;7.72;7.13;;;28.90;99.90;;;;;;4924961;28;92129;-33
2022/08/24 10:11:38;;;;;;;;;;;29.10;99.90;;;;;;4941660;28;92088;-32
2022/08/24 10:14:15;;;;;;;12.73;7.65;;;29.30;99.90;;;;;;4952867;28;95854;-32
2022/08/24 10:16:56;;;;;;;;;;;29.30;99.90;;;;;;4943998;28;94803;-34
2022/08/24 10:19:52;;;;;;;11.35;10.23;;;29.30;99.90;;;;;;4937722;28;93509;-34
2022/08/24 10:22:40;;;;;;;10.00;9.03;;;29.00;99.90;;;;;;4936494;28;92207;-32
2022/08/24 10:25:17;;;;;;;11.25;8.35;;;28.90;99.90;;;;;;4936246;28;97543;-32
2022/08/24 10:27:49;;;;;;;11.00;9.30;;;29.10;99.90;;;;;;4936388;28;95541;-33
2022/08/24 10:30:45;;;;;;;8.85;7.68;;;29.10;99.90;;;;;;4937447;28;94861;-33
2022/08/24 10:33:27;;;;;;;13.10;10.32;;;29.20;99.90;;;;;;4937133;28;93809;-33
2022/08/24 10:36:15;;;;;;;13.75;7.82;;;29.30;99.90;;;;;;4936333;28;94758;-31
2022/08/24 10:42:06;;;;;;;7.82;7.13;;;29.10;99.90;;;;;;4936576;28;93615;-34
2022/08/24 10:45:01;;;;;;;9.30;7.72;;;28.80;99.90;;;;;;4936471;28;93320;-30
2022/08/24 10:47:34;;;;;;;9.65;8.77;;;28.90;99.90;;;;;;4937425;28;94150;-33
2022/08/24 10:50:25;;;;;;;11.05;9.98;;;29.00;99.90;;;;;;4935226;28;96307;-34
2022/08/24 10:52:57;;;;;;;11.13;10.00;;;29.20;99.90;;;;;;4938115;28;93080;-31
2022/08/24 10:55:28;;;;;;;8.90;8.05;;;29.10;99.90;;;;;;4936317;28;92781;-33
2022/08/24 10:58:12;;;;;;;7.10;6.50;;;29.10;99.90;;;;;;4936766;28;94974;-33
2022/08/24 11:00:38;;;;;;;7.75;7.15;;;29.10;99.90;;;;;;4936921;28;94429;-32
2022/08/24 11:03:17;;;;;;;8.55;7.90;;;29.20;99.90;;;;;;4936403;28;94149;-32
2022/08/24 11:05:53;;;;;;;8.07;7.28;;;29.30;99.90;;;;;;4925292;28;93229;-33
2022/08/24 11:08:25;;;;;;;8.40;7.53;;;29.40;99.90;;;;;;4934137;28;94823;-34
2022/08/24 11:11:12;;;;;;;8.93;6.28;;;29.50;99.90;;;;;;4937230;28;95927;-34
2022/08/24 11:13:57;;;;;;;;;;;29.60;99.90;;;;;;4938897;28;94641;-34
2022/08/24 11:16:30;;;;;;;9.02;6.82;;;29.60;99.90;;;;;;4943888;28;93167;-32
2022/08/24 11:18:58;;;;;;;7.00;6.30;;;29.60;99.90;;;;;;4936772;28;95768;-35
2022/08/24 11:21:36;;;;;;;7.70;7.10;;;29.70;99.90;;;;;;4936440;28;95630;-34
2022/08/24 11:24:31;;;;;;;9.30;8.32;;;29.80;99.90;;;;;;4925438;28;92708;-34
2022/08/24 11:27:00;;;;;;;8.63;7.80;;;29.80;99.90;;;;;;4918392;28;93794;-34
2022/08/24 11:29:48;;;;;;;12.75;8.07;;;29.70;99.90;;;;;;4939862;28;94798;-32
2022/08/24 11:32:50;;;;;;;7.78;7.07;;;29.60;99.90;;;;;;4934372;28;93417;-32
2022/08/24 11:35:15;;;;;;;9.13;8.30;;;29.60;99.90;;;;;;4949783;28;92084;-32
2022/08/24 11:37:41;;;;;;;7.28;6.35;;;29.60;99.90;;;;;;4950579;28;92234;-32
2022/08/24 11:40:09;;;;;;;8.68;7.22;;;29.70;99.90;;;;;;4944926;28;94137;-35
2022/08/24 11:42:41;;;;;;;9.32;8.45;;;29.80;99.90;;;;;;4936434;28;94365;-33
2022/08/24 11:45:34;;;;;;;8.30;7.60;;;29.80;99.90;;;;;;4936384;28;95375;-35
2022/08/24 11:48:40;;;;;;;10.05;7.03;;;29.80;97.70;;;;;;4926530;28;94750;-32
2022/08/24 11:51:31;;;;;;;7.40;6.80;;;29.60;99.30;;;;;;4936741;28;95196;-33
2022/08/24 11:54:04;;;;;;;6.38;5.78;;;29.50;99.90;;;;;;4935883;28;94554;-34
2022/08/24 11:56:49;;;;;;;6.32;5.78;;;29.40;99.90;;;;;;4936031;28;93371;-32
2022/08/24 11:59:47;;;;;;;6.25;5.72;;;29.40;99.90;;;;;;4932190;28;94018;-32
2022/08/24 12:02:24;;;;;;;8.70;5.18;;;29.60;99.90;;;;;;4925510;28;94647;-33
2022/08/24 12:05:13;;;;;;;5.57;5.13;;;29.80;97.40;;;;;;4920793;28;94781;-32
2022/08/24 12:07:46;;;;;;;4.97;4.57;;;29.80;96.80;;;;;;4920467;28;93593;-33
2022/08/24 12:10:49;;;;;;;3.75;3.45;;;29.70;98.90;;;;;;4930082;28;92349;-34
2022/08/24 12:13:25;;;;;;;3.08;2.88;;;29.80;99.70;;;;;;4918715;28;95784;-34
2022/08/24 12:16:15;;;;;;;6.38;2.72;;;29.90;94.60;;;;;;4927731;28;95883;-33
2022/08/24 12:19:04;;;;;;;1.90;1.80;;;29.80;96.00;;;;;;4936905;28;94529;-35
2022/08/24 12:21:32;;;;;;;2.22;1.90;;;29.60;95.90;;;;;;4935839;28;93377;-35
2022/08/24 12:24:03;;;;;;;2.20;1.98;;;29.60;87.40;;;;;;4936908;28;96390;-35
2022/08/24 12:26:40;;;;;;;1.80;1.70;;;29.60;89.20;;;;;;4936365;28;94842;-34
2022/08/24 12:29:16;;;;;;;3.72;3.00;;;29.70;87.70;;;;;;4972084;22;92529;-33
2022/08/24 12:32:13;;;;;;;3.38;2.45;;;29.80;87.90;;;;;;4937812;28;93199;-35
2022/08/24 12:34:45;;;;;;;3.55;2.03;;;29.90;88.40;;;;;;4935270;28;94600;-35
2022/08/24 12:37:25;;;;;;;2.90;2.13;;;30.20;85.90;;;;;;4937520;28;94481;-37
2022/08/24 12:40:29;;;;;;;2.95;2.35;;;30.20;81.80;;;;;;4936709;28;94044;-35
2022/08/24 12:43:07;;;;;;;15.23;4.25;;;30.30;88.80;;;;;;4921228;28;93087;-35
2022/08/24 12:45:34;;;;;;;2.63;2.28;;;30.50;83.70;;;;;;4937419;28;95019;-34
2022/08/24 12:48:05;;;;;;;2.13;1.90;;;30.50;76.70;;;;;;4937597;28;95825;-34
2022/08/24 12:50:59;;;;;;;2.30;2.03;;;30.30;74.80;;;;;;4937837;28;94146;-34
2022/08/24 12:53:33;;;;;;;2.20;2.10;;;30.10;75.50;;;;;;4936282;28;94293;-33
2022/08/24 12:56:29;;;;;;;2.72;2.28;;;30.30;74.50;;;;;;4937168;28;94640;-35
2022/08/24 12:58:57;;;;;;;5.38;2.35;;;30.30;76.40;;;;;;4937443;28;94057;-35
2022/08/24 13:01:26;;;;;;;2.92;2.72;;;30.40;74.20;;;;;;4937036;28;94257;-34
2022/08/24 13:04:15;;;;;;;8.00;3.25;;;30.50;74.60;;;;;;4936183;28;94558;-33
2022/08/24 13:07:09;;;;;;;2.92;2.72;;;30.60;73.20;;;;;;4922646;28;95779;-34
2022/08/24 13:09:41;;;;;;;3.53;2.35;;;30.50;70.70;;;;;;4936661;28;95597;-35